Time;durP1;ratioP1;P1;durP2;ratioP2;P2;SDS_P1;SDS_P2;PMS_P1;PMS_P2;Temp;Humidity;BMP_temperature;BMP_pressure;BME280_temperature;BME280_humidity;BME280_pressure;Samples;Min_cycle;Max_cycle;Signal;HPM_P1;HPM_P2
2022/03/30 00:01:10;;;;;;;42.50;30.67;;;;;;;21.16;38.38;100948.34;5050687;28;20029;-76
2022/03/30 00:03:36;;;;;;;41.42;29.73;;;;;;;21.18;38.30;100943.22;5050670;28;20368;-72
2022/03/30 00:06:04;;;;;;;40.30;29.02;;;;;;;21.18;38.48;100943.22;5050588;28;20033;-73
2022/03/30 00:08:30;;;;;;;43.90;30.98;;;;;;;21.11;38.65;100943.94;5050567;28;20432;-74
2022/03/30 00:10:56;;;;;;;38.35;27.48;;;;;;;21.13;38.63;100938.78;5050397;28;20033;-73
2022/03/30 00:13:21;;;;;;;39.95;28.20;;;;;;;21.12;38.66;100945.53;5050192;28;20387;-73
2022/03/30 00:15:47;;;;;;;36.90;28.10;;;;;;;21.13;38.63;100943.56;5049782;28;20097;-73
2022/03/30 00:18:13;;;;;;;43.38;29.25;;;;;;;21.11;38.64;100943.13;5050404;28;20029;-73
2022/03/30 00:20:39;;;;;;;41.75;28.88;;;;;;;21.13;38.58;100940.78;5050348;28;20028;-73
2022/03/30 00:23:05;;;;;;;43.45;30.30;;;;;;;21.14;38.64;100934.03;5050733;28;20043;-73
2022/03/30 00:25:31;;;;;;;45.00;30.90;;;;;;;21.15;38.42;100932.84;5050274;28;20041;-73
2022/03/30 00:27:57;;;;;;;39.13;28.83;;;;;;;21.17;38.51;100930.50;5049004;28;20021;-74
2022/03/30 00:30:23;;;;;;;44.08;32.60;;;;;;;21.51;37.76;100926.50;5050208;27;20032;-73
2022/03/30 00:32:49;;;;;;;46.17;32.35;;;;;;;21.34;37.84;100929.91;5048938;28;20059;-74
2022/03/30 00:35:15;;;;;;;42.58;32.15;;;;;;;21.53;37.52;100926.13;5050130;27;20032;-73
2022/03/30 00:37:41;;;;;;;49.33;32.67;;;;;;;21.59;37.42;100922.63;5050116;27;20033;-73
2022/03/30 00:40:11;;;;;;;46.30;32.85;;;;;;;21.62;37.37;100918.28;5049832;28;20045;-73
2022/03/30 00:42:37;;;;;;;51.33;34.45;;;;;;;21.65;37.46;100925.06;5050159;28;20021;-73
2022/03/30 00:45:10;;;;;;;45.53;33.08;;;;;;;21.58;37.58;100918.25;5050082;28;20025;-73
2022/03/30 00:47:37;;;;;;;47.13;33.05;;;;;;;21.63;37.43;100910.75;5048730;28;20026;-73
2022/03/30 00:50:05;;;;;;;43.63;32.20;;;;;;;21.19;38.23;100911.47;5049912;28;20390;-74
2022/03/30 00:52:31;;;;;;;48.10;34.17;;;;;;;21.11;38.54;100910.59;5049866;27;20073;-74
2022/03/30 00:54:57;;;;;;;40.97;31.25;;;;;;;21.13;38.53;100901.88;5049922;28;20413;-73
2022/03/30 00:57:24;;;;;;;42.58;31.50;;;;;;;21.09;38.63;100899.06;5049834;28;20020;-73
2022/03/30 00:59:50;;;;;;;39.38;30.35;;;;;;;21.05;38.63;100890.69;5049875;28;20036;-73
2022/03/30 01:02:17;;;;;;;44.17;30.15;;;;;;;21.02;38.50;100899.00;5049704;28;20032;-73
2022/03/30 01:04:46;;;;;;;41.92;31.05;;;;;;;21.00;38.61;100896.56;5049757;28;20097;-73
2022/03/30 01:07:15;;;;;;;42.85;29.88;;;;;;;21.04;38.41;100893.84;5049698;28;20471;-73
2022/03/30 01:09:41;;;;;;;41.33;30.42;;;;;;;20.92;38.63;100896.88;5049499;28;20064;-73
2022/03/30 01:12:08;;;;;;;46.22;31.63;;;;;;;20.89;38.66;100892.09;5049671;27;20056;-73
2022/03/30 01:14:35;;;;;;;42.03;30.85;;;;;;;20.91;38.73;100893.31;5049545;28;20025;-73
2022/03/30 01:17:01;;;;;;;42.55;30.60;;;;;;;20.97;38.64;100894.56;5049513;28;20088;-73
2022/03/30 01:19:29;;;;;;;49.63;30.73;;;;;;;21.02;38.54;100885.09;5048284;28;20391;-77
2022/03/30 01:21:55;;;;;;;43.58;31.60;;;;;;;20.99;38.50;100881.09;5049493;28;20474;-74
2022/03/30 01:24:21;;;;;;;42.38;31.38;;;;;;;21.01;38.64;100881.53;5048211;28;20128;-74
2022/03/30 01:26:47;;;;;;;41.38;29.15;;;;;;;20.96;38.66;100875.50;5049202;28;20100;-75
2022/03/30 01:34:42;;;;;;;40.40;27.75;;;;;;;21.00;38.37;100870.78;5049650;28;20044;-73
2022/03/30 01:37:09;;;;;;;43.13;29.13;;;;;;;20.84;38.76;100871.00;5049219;28;20033;-73
2022/03/30 01:39:35;;;;;;;41.30;29.67;;;;;;;20.81;38.94;100871.78;5049392;28;20478;-73
2022/03/30 01:42:01;;;;;;;39.08;30.17;;;;;;;20.76;38.92;100869.31;5049088;28;20061;-73
2022/03/30 01:44:26;;;;;;;42.58;29.05;;;;;;;20.73;39.05;100870.09;5049166;28;20376;-75
2022/03/30 01:46:53;;;;;;;40.38;30.20;;;;;;;20.64;39.08;100864.84;5049139;28;20101;-73
2022/03/30 01:49:22;;;;;;;39.90;29.27;;;;;;;20.62;38.88;100861.63;5047593;28;20472;-73
2022/03/30 01:51:58;;;;;;;42.50;28.77;;;;;;;20.61;39.06;100871.13;5049012;28;20119;-74
2022/03/30 01:54:26;;;;;;;39.47;28.33;;;;;;;20.59;38.92;100867.16;5047755;28;20116;-80
2022/03/30 01:56:54;;;;;;;39.50;30.50;;;;;;;20.59;38.92;100861.59;5047383;28;20475;-73
2022/03/30 01:59:21;;;;;;;37.72;27.85;;;;;;;20.55;38.93;100857.97;5048791;28;20032;-81
2022/03/30 02:01:47;;;;;;;43.47;29.17;;;;;;;20.50;38.99;100865.47;5048988;28;20025;-73
2022/03/30 02:04:14;;;;;;;36.60;27.40;;;;;;;20.46;39.01;100852.69;5048972;28;20403;-74
2022/03/30 02:06:40;;;;;;;36.70;26.55;;;;;;;20.40;39.06;100855.00;5047868;28;20033;-79
2022/03/30 02:09:08;;;;;;;42.33;29.00;;;;;;;20.38;39.06;100842.66;5047624;28;20033;-73
2022/03/30 02:11:34;;;;;;;39.95;28.85;;;;;;;20.35;39.08;100838.66;5048791;28;20077;-80
2022/03/30 02:14:01;;;;;;;42.38;28.90;;;;;;;20.30;39.12;100841.78;5048822;28;20073;-77
2022/03/30 02:16:26;;;;;;;36.13;25.20;;;;;;;20.29;39.03;100839.38;5048799;28;20032;-73
2022/03/30 02:18:52;;;;;;;38.05;27.83;;;;;;;20.27;39.05;100834.22;5048801;28;20029;-73
2022/03/30 02:21:18;;;;;;;41.22;28.90;;;;;;;20.21;39.10;100832.94;5048769;28;20398;-73
2022/03/30 02:23:46;;;;;;;40.78;28.13;;;;;;;20.16;38.92;100828.50;5048765;28;20028;-73
2022/03/30 02:26:15;;;;;;;39.83;28.98;;;;;;;20.11;39.16;100834.41;5048644;28;20475;-73
2022/03/30 02:28:43;;;;;;;38.03;26.95;;;;;;;20.12;39.07;100832.41;5047354;28;20399;-73
2022/03/30 02:31:10;;;;;;;42.95;28.48;;;;;;;20.09;39.01;100831.19;5048507;28;20040;-75
2022/03/30 02:33:36;;;;;;;40.85;28.30;;;;;;;20.06;39.09;100833.91;5048689;28;20028;-73
2022/03/30 02:36:03;;;;;;;39.45;28.38;;;;;;;20.01;39.18;100831.47;5048553;28;20038;-74
2022/03/30 02:38:28;;;;;;;39.90;28.10;;;;;;;20.01;39.17;100834.22;5050802;28;20021;-73
2022/03/30 02:40:54;;;;;;;40.92;27.88;;;;;;;19.98;39.26;100837.75;5051721;28;20090;-81
2022/03/30 02:43:20;;;;;;;41.20;28.27;;;;;;;19.95;39.12;100833.78;5050660;28;20074;-74
2022/03/30 02:45:50;;;;;;;37.58;28.17;;;;;;;19.92;39.22;100826.97;5051678;28;20455;-73
2022/03/30 02:48:18;;;;;;;40.55;27.63;;;;;;;19.78;39.24;100826.78;5050666;28;20514;-74
2022/03/30 02:50:51;;;;;;;41.22;28.02;;;;;;;19.84;39.40;100825.28;5051637;28;20489;-73
2022/03/30 02:53:18;;;;;;;39.92;28.33;;;;;;;19.83;39.38;100815.38;5051831;28;20108;-73
2022/03/30 02:55:44;;;;;;;38.08;27.55;;;;;;;19.79;39.28;100814.50;5051725;28;20029;-74
2022/03/30 02:58:11;;;;;;;45.97;29.17;;;;;;;19.79;39.21;100808.16;5051752;28;20391;-75
2022/03/30 03:00:41;;;;;;;36.83;25.80;;;;;;;19.76;39.25;100806.94;5050397;28;20033;-73
2022/03/30 03:03:10;;;;;;;32.58;24.48;;;;;;;19.75;39.23;100805.34;5051749;28;20025;-73
2022/03/30 03:05:37;;;;;;;40.65;25.38;;;;;;;19.78;39.12;100795.47;5051611;28;20104;-73
2022/03/30 03:08:07;;;;;;;38.60;27.23;;;;;;;19.75;39.09;100791.50;5051493;28;20057;-76
2022/03/30 03:10:36;;;;;;;39.00;27.05;;;;;;;19.70;39.14;100799.31;5051411;28;20033;-75
2022/03/30 03:13:03;;;;;;;38.25;25.80;;;;;;;19.71;39.25;100796.16;5051494;28;20092;-80
2022/03/30 03:15:30;;;;;;;40.03;27.63;;;;;;;19.65;39.18;100794.91;5051438;28;20025;-75
2022/03/30 03:17:56;;;;;;;43.38;28.30;;;;;;;19.63;39.33;100788.91;5051406;28;20033;-73
2022/03/30 03:20:21;;;;;;;40.30;28.92;;;;;;;19.70;39.23;100788.22;5051306;28;20043;-73
2022/03/30 03:22:47;;;;;;;40.28;28.10;;;;;;;19.67;39.22;100784.25;5051275;28;20032;-76
2022/03/30 03:25:13;;;;;;;38.58;26.88;;;;;;;19.68;39.22;100780.28;5051193;28;20029;-81
2022/03/30 03:27:38;;;;;;;39.60;27.80;;;;;;;19.69;39.29;100781.88;5051407;28;20475;-78
2022/03/30 03:30:08;;;;;;;36.58;26.33;;;;;;;19.67;39.17;100773.94;5049884;28;20029;-75
2022/03/30 03:32:34;;;;;;;37.28;25.75;;;;;;;19.70;39.13;100772.41;5051242;28;20077;-74
2022/03/30 03:35:00;;;;;;;36.78;27.65;;;;;;;19.76;39.16;100770.91;5051152;28;20387;-74
2022/03/30 03:37:25;;;;;;;40.25;28.15;;;;;;;19.82;38.84;100774.97;5051064;27;20021;-76
2022/03/30 03:39:51;;;;;;;37.60;27.05;;;;;;;19.81;39.09;100775.34;5050831;28;20077;-82
2022/03/30 03:42:16;;;;;;;38.97;27.80;;;;;;;19.80;38.80;100769.00;5051161;28;20029;-73
2022/03/30 03:44:43;;;;;;;41.13;26.55;;;;;;;19.81;38.93;100772.56;5051005;28;20112;-81
2022/03/30 03:47:09;;;;;;;39.88;25.60;;;;;;;19.60;39.32;100773.06;5051006;28;20063;-73
2022/03/30 03:49:38;;;;;;;43.88;28.42;;;;;;;19.55;39.35;100771.34;5050773;28;20029;-73
2022/03/30 03:52:05;;;;;;;41.05;29.35;;;;;;;19.49;39.40;100772.03;5050792;28;20028;-74
2022/03/30 03:54:31;;;;;;;43.40;29.88;;;;;;;19.54;39.60;100763.41;5050794;28;20021;-79
2022/03/30 03:56:56;;;;;;;38.47;28.02;;;;;;;19.52;39.61;100754.69;5050796;28;20497;-73
2022/03/30 03:59:22;;;;;;;41.90;28.08;;;;;;;19.58;39.50;100748.50;5050749;28;20029;-73
2022/03/30 04:01:48;;;;;;;41.70;27.67;;;;;;;19.53;39.60;100751.53;5050703;28;20021;-73
2022/03/30 04:04:13;;;;;;;40.28;29.67;;;;;;;19.55;39.55;100748.38;5050639;28;20036;-73
2022/03/30 04:06:39;;;;;;;43.00;30.42;;;;;;;19.52;39.67;100747.16;5050605;28;20061;-73
2022/03/30 04:09:05;;;;;;;43.30;29.63;;;;;;;19.54;39.70;100746.78;5050590;28;20028;-73
2022/03/30 04:11:30;;;;;;;42.90;28.95;;;;;;;19.66;39.36;100741.06;5050427;28;20036;-81
2022/03/30 04:13:56;;;;;;;43.33;30.45;;;;;;;19.67;39.46;100745.44;5050535;28;20029;-81
2022/03/30 04:16:23;;;;;;;37.20;27.95;;;;;;;19.66;39.40;100743.84;5050435;28;20443;-80
2022/03/30 04:18:48;;;;;;;40.72;26.85;;;;;;;19.64;39.54;100740.63;5050382;28;20064;-73
2022/03/30 04:21:14;;;;;;;37.33;27.77;;;;;;;19.62;39.36;100752.09;5050401;28;20059;-77
2022/03/30 04:23:40;;;;;;;40.53;27.95;;;;;;;19.59;39.60;100754.81;5049237;28;20053;-80
2022/03/30 04:26:09;;;;;;;40.28;26.52;;;;;;;19.52;39.57;100751.91;5050311;28;20052;-74
2022/03/30 04:28:40;;;;;;;35.40;27.88;;;;;;;19.41;39.73;100748.97;5050257;28;20032;-78
2022/03/30 04:31:07;;;;;;;34.42;25.00;;;;;;;19.45;39.33;100749.03;5048963;28;20055;-73
2022/03/30 04:33:33;;;;;;;35.85;26.17;;;;;;;19.33;39.77;100747.25;5050205;27;20025;-73
2022/03/30 04:35:59;;;;;;;29.67;23.58;;;;;;;19.22;39.84;100751.84;5050434;28;20052;-75
2022/03/30 04:38:24;;;;;;;39.92;25.25;;;;;;;19.34;39.68;100754.41;5050234;28;20032;-73
2022/03/30 04:40:50;;;;;;;30.60;23.27;;;;;;;19.25;39.78;100746.34;5049965;28;20522;-73
2022/03/30 04:43:16;;;;;;;32.45;24.63;;;;;;;19.13;40.08;100754.88;5050076;28;20075;-73
2022/03/30 04:45:41;;;;;;;31.42;23.48;;;;;;;19.11;40.00;100757.19;5050029;28;20108;-73
2022/03/30 04:48:07;;;;;;;28.52;23.77;;;;;;;19.13;40.11;100755.69;5049974;28;20394;-73
2022/03/30 04:50:32;;;;;;;32.67;23.45;;;;;;;19.00;40.35;100756.22;5049916;28;20067;-78
2022/03/30 04:52:58;;;;;;;30.88;24.58;;;;;;;18.78;40.82;100764.16;5050298;28;20331;-73
2022/03/30 04:55:24;;;;;;;35.70;25.75;;;;;;;18.90;40.55;100756.84;5049883;28;20032;-74
2022/03/30 04:57:49;;;;;;;37.42;26.08;;;;;;;18.83;40.81;100752.78;5048657;28;20389;-76
2022/03/30 05:00:15;;;;;;;41.53;30.95;;;;;;;18.71;41.19;100761.25;5049257;27;20032;-74
2022/03/30 05:02:41;;;;;;;51.92;35.25;;;;;;;18.72;41.80;100756.50;5049770;28;20029;-74
2022/03/30 05:05:08;;;;;;;61.33;42.70;;;;;;;18.52;43.26;100755.75;5048576;28;20057;-73
2022/03/30 05:07:34;;;;;;;65.13;41.38;;;;;;;18.82;43.13;100748.41;5049707;28;20510;-74
2022/03/30 05:10:01;;;;;;;66.50;39.05;;;;;;;18.92;43.28;100752.53;5049263;28;20108;-82
2022/03/30 05:12:26;;;;;;;66.57;43.92;;;;;;;18.97;43.45;100749.47;5049667;28;20053;-79
2022/03/30 05:14:52;;;;;;;62.95;35.65;;;;;;;18.27;45.37;100761.56;5049567;28;20729;-79
2022/03/30 05:17:18;;;;;;;51.75;34.00;;;;;;;18.71;44.33;100755.72;5049507;28;20028;-81
2022/03/30 05:19:46;;;;;;;48.47;30.90;;;;;;;18.29;45.38;100753.72;5049623;27;20021;-74
2022/03/30 05:22:12;;;;;;;50.55;32.95;;;;;;;18.58;44.50;100757.81;5048191;28;20025;-74
2022/03/30 05:24:37;;;;;;;50.05;31.27;;;;;;;18.52;44.57;100753.78;5048305;28;20032;-73
2022/03/30 05:27:04;;;;;;;47.55;31.63;;;;;;;18.61;44.54;100756.31;5049775;28;20013;-73
2022/03/30 05:29:30;;;;;;;47.05;30.98;;;;;;;18.61;44.25;100756.31;5049443;27;20035;-74
2022/03/30 05:31:56;;;;;;;51.05;31.05;;;;;;;18.42;44.82;100748.81;5048974;28;20040;-74
2022/03/30 05:34:22;;;;;;;41.83;28.50;;;;;;;18.03;45.70;100759.09;5049324;28;20531;-73
2022/03/30 05:36:48;;;;;;;47.53;28.48;;;;;;;17.94;45.94;100764.03;5049376;28;20056;-73
2022/03/30 05:39:14;;;;;;;38.13;24.52;;;;;;;17.49;46.77;100762.59;5049307;28;20414;-73
2022/03/30 05:41:39;;;;;;;38.70;22.95;;;;;;;17.51;46.60;100765.78;5048955;28;20045;-73
2022/03/30 05:44:05;;;;;;;35.80;24.70;;;;;;;18.09;45.14;100779.75;5049248;28;20029;-74
2022/03/30 05:46:31;;;;;;;32.90;21.17;;;;;;;17.69;45.78;100771.75;5049195;28;20050;-74
2022/03/30 05:48:56;;;;;;;35.53;20.15;;;;;;;17.46;46.15;100774.38;5048987;28;20143;-73
2022/03/30 05:51:22;;;;;;;30.15;17.38;;;;;;;18.09;44.81;100782.53;5047776;28;20068;-73
2022/03/30 05:53:47;;;;;;;29.52;14.95;;;;;;;18.15;44.69;100783.84;5049089;28;20021;-72
2022/03/30 05:56:14;;;;;;;22.75;13.15;;;;;;;18.10;44.55;100788.84;5049063;28;20044;-74
2022/03/30 05:58:40;;;;;;;32.50;15.98;;;;;;;17.92;44.81;100792.03;5049111;28;20455;-73
2022/03/30 06:01:06;;;;;;;33.78;15.07;;;;;;;18.01;44.42;100783.53;5049041;28;20082;-72
2022/03/30 06:03:37;;;;;;;28.63;13.07;;;;;;;17.43;45.87;100786.94;5047883;28;20025;-72
2022/03/30 06:06:04;;;;;;;24.20;12.73;;;;;;;17.61;45.45;100783.81;5049039;28;20523;-72
2022/03/30 06:08:31;;;;;;;27.25;14.18;;;;;;;17.32;45.88;100777.59;5045948;28;20075;-72
2022/03/30 06:10:56;;;;;;;25.95;12.63;;;;;;;17.38;45.61;100778.94;5039076;28;20037;-73
2022/03/30 06:13:22;;;;;;;25.52;13.23;;;;;;;17.45;45.14;100781.03;5038885;28;20506;-79
2022/03/30 06:15:48;;;;;;;24.02;11.55;;;;;;;17.76;44.63;100785.75;5032529;28;20029;-72
2022/03/30 06:18:14;;;;;;;19.38;11.35;;;;;;;17.33;45.31;100779.19;5032418;28;20053;-73
2022/03/30 06:20:41;;;;;;;26.73;14.85;;;;;;;17.54;44.85;100773.38;5035995;28;20068;-73
2022/03/30 06:23:07;;;;;;;27.17;13.55;;;;;;;17.75;44.23;100779.41;5048137;28;20021;-73
2022/03/30 06:25:32;;;;;;;25.50;13.35;;;;;;;17.57;44.83;100775.41;5050987;28;20033;-73
2022/03/30 06:27:58;;;;;;;19.05;12.07;;;;;;;17.10;45.49;100776.25;5050783;28;20077;-73
2022/03/30 06:30:24;;;;;;;34.60;14.32;;;;;;;17.34;45.33;100791.84;5052154;28;20391;-77
2022/03/30 06:32:51;;;;;;;22.85;11.65;;;;;;;17.50;45.03;100789.06;5050846;28;20085;-73
2022/03/30 06:35:18;;;;;;;28.25;14.63;;;;;;;17.43;45.14;100791.66;5051499;28;20386;-72
2022/03/30 06:37:44;;;;;;;28.38;12.02;;;;;;;17.20;45.66;100786.75;5041158;28;20031;-77
2022/03/30 06:40:11;;;;;;;22.17;12.85;;;;;;;17.65;44.42;100785.47;5041102;28;20045;-73
2022/03/30 06:42:38;;;;;;;24.80;12.38;;;;;;;17.42;45.18;100790.06;5042620;28;20029;-77
2022/03/30 06:45:06;;;;;;;19.88;12.48;;;;;;;17.15;45.72;100792.56;5041051;28;20018;-73
2022/03/30 06:47:32;;;;;;;25.63;12.80;;;;;;;16.93;46.00;100795.94;5052107;28;20057;-80
2022/03/30 06:49:58;;;;;;;20.50;11.93;;;;;;;17.01;45.86;100803.25;5050555;28;20489;-80
2022/03/30 06:52:24;;;;;;;22.13;10.65;;;;;;;17.06;45.72;100796.66;5051796;28;20077;-79
2022/03/30 06:54:49;;;;;;;22.38;11.55;;;;;;;17.14;45.58;100801.19;5050481;28;20391;-79
2022/03/30 06:57:15;;;;;;;23.52;11.02;;;;;;;16.87;46.01;100805.63;5050553;28;20040;-72
2022/03/30 06:59:41;;;;;;;19.13;10.07;;;;;;;16.89;46.02;100815.16;5051719;28;20483;-76
2022/03/30 07:02:06;;;;;;;26.27;9.88;;;;;;;17.10;45.53;100811.34;5051709;28;20506;-81
2022/03/30 07:04:35;;;;;;;25.02;11.05;;;;;;;17.29;45.20;100814.19;5051678;28;20036;-73
2022/03/30 07:12:29;;;;;;;23.27;11.90;;;;;;;16.25;47.18;100815.31;5051881;28;20094;-73
2022/03/30 07:14:55;;;;;;;25.50;12.68;;;;;;;16.60;45.89;100815.50;5051470;27;20033;-73
2022/03/30 07:17:20;;;;;;;21.92;11.52;;;;;;;16.18;46.67;100817.84;5051417;28;20029;-75
2022/03/30 07:19:46;;;;;;;21.67;11.60;;;;;;;16.82;45.02;100823.22;5051519;28;20032;-72
2022/03/30 07:22:13;;;;;;;24.90;10.85;;;;;;;16.77;45.32;100819.91;5051205;28;20028;-78
2022/03/30 07:24:40;;;;;;;20.70;9.93;;;;;;;16.48;45.62;100819.13;5048820;28;20128;-73
2022/03/30 07:27:05;;;;;;;19.25;9.48;;;;;;;16.95;44.66;100817.66;5046264;28;20089;-75
2022/03/30 07:29:31;;;;;;;19.83;8.90;;;;;;;16.80;44.86;100825.56;5047477;28;20483;-73
2022/03/30 07:31:57;;;;;;;17.77;8.07;;;;;;;16.35;45.87;100832.13;5047949;28;20109;-73
2022/03/30 07:34:23;;;;;;;16.52;7.80;;;;;;;16.94;44.44;100836.19;5048173;28;20118;-73
2022/03/30 07:36:49;;;;;;;21.60;9.68;;;;;;;16.63;45.03;100832.16;5048257;28;20036;-73
2022/03/30 07:39:15;;;;;;;21.42;11.45;;;;;;;16.86;44.25;100840.69;5050210;27;20547;-73
2022/03/30 07:41:41;;;;;;;22.98;9.23;;;;;;;15.99;45.73;100837.75;5050882;28;20063;-73
2022/03/30 07:44:07;;;;;;;14.98;7.95;;;;;;;16.44;45.18;100840.28;5051069;28;20036;-73
2022/03/30 07:46:33;;;;;;;22.27;9.02;;;;;;;16.61;44.78;100839.16;5051042;28;20025;-72
2022/03/30 07:48:59;;;;;;;27.10;10.57;;;;;;;16.64;44.48;100838.47;5050870;28;20031;-72
2022/03/30 07:51:25;;;;;;;24.35;9.25;;;;;;;16.61;44.59;100842.72;5043338;28;20064;-72
2022/03/30 07:53:51;;;;;;;22.30;8.93;;;;;;;16.49;44.45;100840.03;5041624;28;20479;-73
2022/03/30 07:56:16;;;;;;;24.55;8.88;;;;;;;16.20;45.12;100841.16;5038451;28;20033;-72
2022/03/30 07:58:42;;;;;;;12.18;6.88;;;;;;;16.49;44.51;100833.72;5039174;28;20025;-72
2022/03/30 08:01:08;;;;;;;20.90;8.55;;;;;;;16.13;45.50;100840.13;5043617;28;20018;-72
2022/03/30 08:03:34;;;;;;;21.73;7.18;;;;;;;16.24;44.96;100835.72;5038238;28;20081;-72
2022/03/30 08:06:00;;;;;;;21.50;8.60;;;;;;;16.18;45.01;100837.94;5047456;28;20032;-72
2022/03/30 08:08:26;;;;;;;15.20;6.07;;;;;;;15.79;45.83;100836.72;5049147;28;20033;-72
2022/03/30 08:10:53;;;;;;;15.63;6.68;;;;;;;16.21;45.12;100837.22;5047553;28;20121;-79
2022/03/30 08:13:19;;;;;;;18.52;8.35;;;;;;;16.50;44.55;100843.59;5046185;28;20032;-76
2022/03/30 08:15:45;;;;;;;17.98;7.18;;;;;;;16.67;43.83;100846.03;5049117;28;20474;-77
2022/03/30 08:18:10;;;;;;;22.67;7.97;;;;;;;16.44;44.00;100845.78;5048983;28;20028;-78
2022/03/30 08:23:20;;;;;;;14.82;6.88;;;;;;;16.45;44.13;100841.88;5030694;28;20387;-78
2022/03/30 08:25:46;;;;;;;14.45;6.00;;;;;;;16.54;43.93;100834.25;5030421;28;20025;-75
2022/03/30 08:28:11;;;;;;;12.93;6.00;;;;;;;17.28;42.33;100839.41;5036339;28;20409;-73
2022/03/30 08:30:37;;;;;;;20.20;8.43;;;;;;;17.15;42.46;100841.44;5050273;28;20035;-73
2022/03/30 08:33:03;;;;;;;17.88;7.10;;;;;;;16.74;42.91;100854.53;5049705;28;20025;-73
2022/03/30 08:35:30;;;;;;;18.40;7.93;;;;;;;17.29;42.13;100841.00;5047976;28;20021;-73
2022/03/30 08:37:56;;;;;;;21.17;7.28;;;;;;;17.29;42.09;100836.28;5048094;28;20433;-73
2022/03/30 08:40:22;;;;;;;15.70;6.10;;;;;;;17.09;42.35;100840.13;5047782;28;20049;-73
2022/03/30 08:42:49;;;;;;;17.88;6.30;;;;;;;17.32;41.86;100849.41;5049347;28;20025;-72
2022/03/30 08:45:14;;;;;;;14.95;6.63;;;;;;;17.68;41.55;100853.84;5048985;28;20475;-72
2022/03/30 08:47:40;;;;;;;21.00;7.38;;;;;;;17.43;41.87;100853.22;5048115;28;20094;-73
2022/03/30 08:50:07;;;;;;;19.13;6.65;;;;;;;17.46;41.58;100855.28;5048102;28;20025;-72
2022/03/30 08:52:33;;;;;;;20.23;7.30;;;;;;;17.67;40.98;100856.94;5047972;28;20467;-73
2022/03/30 08:54:59;;;;;;;22.60;6.72;;;;;;;17.51;41.00;100856.97;5046725;28;20029;-72
2022/03/30 08:57:26;;;;;;;18.80;6.88;;;;;;;17.43;41.06;100855.19;5046888;28;20154;-71
2022/03/30 09:00:07;;;;;;;13.00;4.38;;;;;;;16.81;41.98;100865.00;5048641;28;20069;-72
2022/03/30 09:02:41;;;;;;;15.55;5.53;;;;;;;17.51;40.92;100864.44;5049852;28;20387;-72
2022/03/30 09:05:21;;;;;;;17.92;5.50;;;;;;;17.44;40.71;100873.34;5049853;28;20025;-72
2022/03/30 09:07:51;;;;;;;22.63;5.43;;;;;;;17.39;40.65;100873.63;5049808;28;20170;-72
2022/03/30 09:10:20;;;;;;;15.68;4.45;;;;;;;17.33;40.83;100864.81;5049651;28;20554;-71
2022/03/30 09:12:50;;;;;;;16.52;5.65;;;;;;;16.96;40.83;100866.97;5049735;28;20483;-74
2022/03/30 09:15:17;;;;;;;12.52;4.07;;;;;;;16.76;41.22;100884.53;5049638;28;20013;-73
2022/03/30 09:17:43;;;;;;;11.32;3.80;;;;;;;16.70;41.63;100878.50;5049554;28;20022;-72
2022/03/30 09:20:19;;;;;;;13.93;4.47;;;;;;;16.96;40.91;100877.22;5048305;28;20536;-72
2022/03/30 09:22:47;;;;;;;23.38;5.95;;;;;;;17.26;40.40;100881.19;5049606;28;20032;-72
2022/03/30 09:25:15;;;;;;;17.38;4.35;;;;;;;16.87;41.30;100880.13;5048265;28;20475;-72
2022/03/30 09:27:42;;;;;;;11.43;4.35;;;;;;;16.71;41.54;100879.28;5048290;28;20025;-72
2022/03/30 09:30:11;;;;;;;10.05;3.75;;;;;;;16.99;41.10;100882.81;5048113;28;20370;-72
2022/03/30 09:32:38;;;;;;;17.67;5.40;;;;;;;16.95;41.01;100881.13;5049396;28;20025;-72
2022/03/30 09:35:04;;;;;;;11.45;4.10;;;;;;;17.06;40.76;100880.25;5049403;28;20585;-72
2022/03/30 09:37:30;;;;;;;14.40;4.10;;;;;;;16.54;42.12;100878.38;5048125;28;20103;-72
2022/03/30 09:39:56;;;;;;;10.55;4.28;;;;;;;16.03;42.95;100880.00;5049129;28;20437;-74
2022/03/30 09:42:26;;;;;;;15.77;4.40;;;;;;;16.47;42.27;100888.41;5049327;28;20025;-71
2022/03/30 09:44:53;;;;;;;12.23;4.82;;;;;;;16.61;41.61;100888.81;5049417;28;20036;-73
2022/03/30 09:47:21;;;;;;;11.02;3.85;;;;;;;15.97;42.46;100882.19;5051397;28;20033;-72
2022/03/30 09:49:49;;;;;;;12.33;4.43;;;;;;;16.12;42.48;100888.16;5052457;28;20032;-73
2022/03/30 09:52:20;;;;;;;14.55;3.97;;;;;;;15.84;42.79;100888.84;5052707;28;20021;-73
2022/03/30 09:54:53;;;;;;;15.90;4.05;;;;;;;16.33;42.39;100894.31;5052781;27;20025;-74
2022/03/30 09:57:25;;;;;;;15.88;4.00;;;;;;;16.40;41.98;100885.44;5052745;28;20025;-73
2022/03/30 10:00:12;;;;;;;12.15;3.20;;;;;;;16.25;41.94;100898.81;5052968;28;20107;-73
2022/03/30 10:02:41;;;;;;;10.52;3.63;;;;;;;15.94;42.08;100902.16;5052674;28;20076;-73
2022/03/30 10:05:15;;;;;;;12.88;3.95;;;;;;;15.61;42.57;100888.50;5052596;28;20068;-73
2022/03/30 10:07:41;;;;;;;17.83;4.03;;;;;;;15.96;42.17;100894.34;5052851;28;20488;-76
2022/03/30 10:10:10;;;;;;;14.15;3.70;;;;;;;16.11;41.80;100889.31;5052648;28;20386;-73
2022/03/30 10:12:36;;;;;;;10.95;4.25;;;;;;;15.88;42.00;100894.47;5052475;28;20025;-73
2022/03/30 10:15:02;;;;;;;15.02;4.55;;;;;;;16.18;41.26;100892.28;5052531;28;20021;-75
2022/03/30 10:17:31;;;;;;;12.98;3.78;;;;;;;16.52;40.93;100888.16;5052476;28;20051;-73
2022/03/30 10:19:57;;;;;;;13.90;4.15;;;;;;;16.38;41.42;100888.53;5051053;28;20048;-71
2022/03/30 10:22:26;;;;;;;10.55;3.05;;;;;;;16.06;41.61;100895.84;5052402;27;20025;-70
2022/03/30 10:25:33;;;;;;;10.27;3.35;;;;;;;16.36;41.03;100899.13;5052282;28;20025;-71
2022/03/30 10:28:21;;;;;;;9.45;2.88;;;;;;;15.81;41.61;100892.31;5024943;28;20041;-71
2022/03/30 10:30:54;;;;;;;35.83;7.57;;;;;;;16.59;40.61;100897.44;5050959;28;20040;-71
2022/03/30 10:33:44;;;;;;;12.82;3.60;;;;;;;15.48;42.16;100884.88;5048598;28;20033;-70
2022/03/30 10:36:23;;;;;;;;;;;;;;;15.61;41.76;100901.44;5052610;28;20025;-70
2022/03/30 10:39:14;;;;;;;10.00;2.70;;;;;;;15.67;41.34;100894.59;5052009;28;19920;-70
2022/03/30 10:42:10;;;;;;;8.68;2.45;;;;;;;15.68;41.25;100901.69;5042734;27;20052;-71
2022/03/30 10:44:47;;;;;;;8.52;3.05;;;;;;;16.24;40.18;100899.94;5052005;28;20029;-73
2022/03/30 10:47:20;;;;;;;8.77;2.20;;;;;;;15.82;41.34;100914.00;5051957;28;20052;-71
2022/03/30 10:49:51;;;;;;;15.45;2.70;;;;;;;16.35;40.31;100908.56;5051945;28;20021;-71
2022/03/30 10:52:35;;;;;;;12.35;3.10;;;;;;;15.87;40.66;100909.38;5050535;28;20472;-71
2022/03/30 10:55:13;;;;;;;13.82;3.03;;;;;;;15.70;40.99;100908.47;5051852;28;20029;-72
2022/03/30 10:57:51;;;;;;;7.95;2.33;;;;;;;16.34;39.64;100913.25;5051396;28;20017;-74
2022/03/30 11:00:27;;;;;;;8.63;2.45;;;;;;;15.55;40.43;100907.16;5051726;28;20044;-72
2022/03/30 11:03:20;;;;;;;11.05;3.25;;;;;;;16.54;39.24;100910.69;5051808;28;20029;-71
2022/03/30 11:06:06;;;;;;;16.90;2.35;;;;;;;16.33;39.45;100906.16;5051705;28;20029;-71
2022/03/30 11:08:32;;;;;;;12.15;2.63;;;;;;;16.31;39.60;100902.13;5050365;28;20507;-71
2022/03/30 11:11:01;;;;;;;10.20;2.05;;;;;;;16.16;39.54;100911.91;5050204;28;20056;-71
2022/03/30 11:13:27;;;;;;;14.85;3.17;;;;;;;16.14;39.75;100905.13;5051517;28;20108;-72
2022/03/30 11:15:59;;;;;;;5.78;2.10;;;;;;;15.81;39.56;100906.06;5051565;28;20033;-71
2022/03/30 11:18:26;;;;;;;13.60;2.95;;;;;;;16.27;39.50;100906.72;5051469;28;20021;-71
2022/03/30 11:21:15;;;;;;;10.30;2.10;;;;;;;16.32;38.95;100906.47;5051487;28;20020;-72
2022/03/30 11:24:05;;;;;;;14.15;3.45;;;;;;;16.54;38.31;100908.72;5051471;28;20025;-71
2022/03/30 11:26:48;;;;;;;8.35;2.53;;;;;;;15.97;39.66;100901.47;5039600;28;20044;-72
2022/03/30 11:29:47;;;;;;;5.72;2.67;;;;;;;16.28;39.13;100922.91;5051264;28;20428;-71